04h13 EDT


 

Suivi/Infos de l'aéroport


-ou-


 

Suivi des vols en temps réelTradewind #27 ✈ 15-06-2013 ✈ KBOS - KHPN

Thumbnail
Tradewind 27
GPD27 · "Goodspeed" (tous les vols)
Int'l Logan ()
Westchester County ()
00h21 EDT
00h38 EDT
Prévu: 00h34 EDT
Prévu: 01h34 EDT
Durée: 17 minutes
samedi, 15 juin 2013
Statut A atterri il y a plus d'un an. (journal de vol & graphique)
Avion Pilatus PC-12 (monoturbopropulseur) (PC12/T – photos)
Vitesse Plan de vol: 144 kts (graphique)
Altitude (graphique)
Distance En ligne droite 267 km    Parcourue 267 km
TarifAverage: $240.02 (Aperçu sur les compagnies aériennes)
Route n/a
JOURNAL DE L'ACTIVITE
Vous voulez une recherche complète sur l'historique de GPD27 depuis 1998? Achetez maintenant. Recevez-le dans l'heure.
Date Avion Provenance Destination Départ Arrivée Durée
02-09-2014 PC12Nantucket Memorial ()Westchester County () 06h12 EDT 06h59 EDT Prévue
02-09-2014 PC12Waterbury-Oxford ()Nantucket Memorial () 04h46 EDT 05h26 EDT Prévue
01-09-2014 PC12/GBlock Island State ()Teterboro () 18h55 EDT 19h27 EDT 0:32
01-09-2014 PC12/GTeterboro ()Block Island State () 18h10 EDT 19h15 EDT 1:05
01-09-2014 PC12/GMartha's Vineyard ()Westchester County () 16h27 EDT 17h10 EDT 0:43
01-09-2014 PC12/GInt'l Logan ()Martha's Vineyard () 14h45 EDT 15h05 EDT 0:20
01-09-2014 PC12/GNantucket Memorial ()Int'l Logan () 13h21 EDT 13h54 EDT 0:33
01-09-2014 PC12/GWestchester County ()Nantucket Memorial () 11h35 EDT 12h48 EDT 1:13
29-08-2014 PC12/GMartha's Vineyard ()Westchester County () 17h24 EDT 18h09 EDT 0:45
29-08-2014 PC12/GWestchester County ()Martha's Vineyard () 15h32 EDT 16h17 EDT 0:45
29-08-2014 PC12/GWaterbury-Oxford ()Westchester County () 12h23 EDT 12h32 EDT 0:08
28-08-2014 PC12/GNantucket Memorial ()Waterbury-Oxford () 20h00 EDT 20h39 EDT 0:39
28-08-2014 PC12Teterboro ()Nantucket Memorial () 18h49 EDT 19h33 EDT 0:44
28-08-2014 PC12/GNantucket Memorial ()Teterboro () 17h09 EDT 18h04 EDT 0:55
28-08-2014 PC12/GTeterboro ()Nantucket Memorial () 15h56 EDT 16h34 EDT 0:38
28-08-2014 PC12/GWaterbury-Oxford ()Teterboro () 14h00 EDT 14h13 EDT 0:12
27-08-2014 PC12/GNantucket Memorial ()Waterbury-Oxford () 11h52 EDT 12h24 EDT 0:32
27-08-2014 PC12/GTeterboro ()Nantucket Memorial () 10h33 EDT 11h07 EDT 0:34
27-08-2014 PC12/GWestchester County ()Teterboro () 08h48 EDT 08h55 EDT 0:07
25-08-2014 PC12Newport State ()Westchester County () 14h39 EDT 15h02 EDT 0:23
25-08-2014 PC12Int'l Bradley ()Nantucket Memorial () 10h27 EDT 11h02 EDT 0:35
24-08-2014 PC12/GTeterboro ()Waterbury-Oxford () 19h08 EDT 19h30 EDT (?) 0:22
24-08-2014 PC12/GMartha's Vineyard ()Teterboro () 17h52 EDT 18h39 EDT 0:47
24-08-2014 PC12/GWestchester County ()Martha's Vineyard () 16h34 EDT 17h20 EDT 0:46
24-08-2014 PC12/GBrunswick Executive ()Westchester County () 14h16 EDT 15h16 EDT 0:59
24-08-2014 PC12/GNantucket Memorial ()Brunswick Executive () 12h32 EDT 13h15 EDT 0:43
24-08-2014 PC12/GGroton-New London ()Nantucket Memorial () 11h20 EDT 12h06 EDT (?) 0:46
24-08-2014 UnknownWestchester County ()Nantucket Memorial () 11h20 EDT 12h05 EDT 0:45
23-08-2014 PC12/GNantucket Memorial ()Westchester County () 12h38 EDT 13h28 EDT 0:50
23-08-2014 PC12/GSaratoga County ()Nantucket Memorial () 10h30 EDT 11h31 EDT 1:01
23-08-2014 PC12/GWaterbury-Oxford ()Saratoga County () 08h59 EDT 09h26 EDT 0:27
22-08-2014 PC12/GMartha's Vineyard ()Waterbury-Oxford () 19h30 EDT 20h12 EDT 0:42
22-08-2014 PC12/GWestchester County ()Martha's Vineyard () 18h25 EDT 19h17 EDT 0:52
22-08-2014 PC12/GMartha's Vineyard ()Westchester County () 15h14 EDT 16h03 EDT 0:49
22-08-2014 PC12/GWestchester County ()Martha's Vineyard () 14h06 EDT 14h50 EDT 0:44
21-08-2014 PC12/GNantucket Memorial ()Westchester County () 17h04 EDT 17h54 EDT 0:50
21-08-2014 PC12/GWesterly State ()Nantucket Memorial () 10h13 EDT 10h40 EDT 0:27
21-08-2014 PC12/GWestchester County ()East Hampton () 07h40 EDT 07h48 EDT (?) 0:08
Les membres inscrits (l'inscription est gratuite et facile!) voient 4 months d'historique. S'inscrire